Time;durP1;ratioP1;P1;durP2;ratioP2;P2;SDS_P1;SDS_P2;PMS_P1;PMS_P2;Temp;Humidity;BMP_temperature;BMP_pressure;BME280_temperature;BME280_humidity;BME280_pressure;Samples;Min_cycle;Max_cycle;Signal;HPM_P1;HPM_P2
2020/12/31 00:00:31;;;;;;;23.05;11.55;;;15.00;67.50;;;;;;4990596;28;20557;-69
2020/12/31 00:02:57;;;;;;;21.63;10.98;;;14.90;67.10;;;;;;4989584;28;20054;-69
2020/12/31 00:05:22;;;;;;;28.83;11.70;;;14.90;67.10;;;;;;4990339;28;20423;-69
2020/12/31 00:07:48;;;;;;;20.58;10.70;;;14.90;67.30;;;;;;4982689;28;20070;-68
2020/12/31 00:10:13;;;;;;;17.88;10.13;;;14.80;67.20;;;;;;4979498;28;20109;-68
2020/12/31 00:12:39;;;;;;;21.45;10.52;;;14.80;67.10;;;;;;4977605;28;20399;-69
2020/12/31 00:15:05;;;;;;;21.15;10.75;;;14.80;67.10;;;;;;4970994;28;20029;-69
2020/12/31 00:17:30;;;;;;;19.83;10.98;;;14.80;67.10;;;;;;4985645;28;20049;-69
2020/12/31 00:19:56;;;;;;;18.20;10.13;;;14.80;66.90;;;;;;4970591;28;20492;-69
2020/12/31 00:22:21;;;;;;;22.33;10.90;;;14.80;66.90;;;;;;4978115;28;20062;-69
2020/12/31 00:24:47;;;;;;;20.33;10.65;;;14.70;66.90;;;;;;4976742;28;20605;-69
2020/12/31 00:27:13;;;;;;;19.10;9.85;;;14.70;66.90;;;;;;4990579;28;20026;-68
2020/12/31 00:29:38;;;;;;;16.80;9.27;;;14.70;67.10;;;;;;4972442;28;20047;-69
2020/12/31 00:32:04;;;;;;;16.77;9.18;;;14.70;66.90;;;;;;4979536;28;20030;-70
2020/12/31 00:34:29;;;;;;;20.05;9.73;;;14.70;67.00;;;;;;4980381;28;20119;-68
2020/12/31 00:36:55;;;;;;;18.38;9.35;;;14.70;67.20;;;;;;4977148;28;20157;-69
2020/12/31 00:39:20;;;;;;;18.05;9.30;;;14.70;67.10;;;;;;4973941;28;20507;-69
2020/12/31 00:41:46;;;;;;;17.80;9.50;;;14.70;67.10;;;;;;4978588;28;20556;-69
2020/12/31 00:44:12;;;;;;;17.30;9.82;;;14.60;66.80;;;;;;4971058;28;20046;-68
2020/12/31 00:46:37;;;;;;;16.02;9.30;;;14.70;67.10;;;;;;4988719;28;20041;-69
2020/12/31 00:49:03;;;;;;;18.42;8.88;;;14.60;67.00;;;;;;4976295;28;20066;-68
2020/12/31 00:51:29;;;;;;;15.60;8.75;;;14.60;66.90;;;;;;4970416;28;20031;-69
2020/12/31 00:53:54;;;;;;;20.55;9.77;;;14.60;66.90;;;;;;4980628;28;20452;-69
2020/12/31 00:56:20;;;;;;;17.48;8.50;;;14.60;66.90;;;;;;4970853;28;20035;-68
2020/12/31 00:58:45;;;;;;;17.23;8.50;;;14.50;66.90;;;;;;4974261;28;20053;-69
2020/12/31 01:01:11;;;;;;;16.08;8.30;;;14.50;66.90;;;;;;4981734;28;20060;-70
2020/12/31 01:03:36;;;;;;;17.55;8.68;;;14.50;66.90;;;;;;4985601;28;20083;-70
2020/12/31 01:06:02;;;;;;;14.48;7.97;;;14.50;66.70;;;;;;4984956;28;20065;-69
2020/12/31 01:08:27;;;;;;;14.07;8.43;;;14.50;66.90;;;;;;4991899;28;20053;-69
2020/12/31 01:10:53;;;;;;;13.35;7.38;;;14.50;66.90;;;;;;4984261;28;20030;-68
2020/12/31 01:13:19;;;;;;;15.65;7.68;;;14.40;66.90;;;;;;4989810;28;20771;-69
2020/12/31 01:15:45;;;;;;;13.93;7.85;;;14.50;66.90;;;;;;4982728;28;20398;-69
2020/12/31 01:18:10;;;;;;;14.32;7.57;;;14.40;66.70;;;;;;4990292;28;20026;-69
2020/12/31 01:20:38;;;;;;;15.02;7.60;;;14.40;66.90;;;;;;4987979;28;20030;-69
2020/12/31 01:23:05;;;;;;;13.98;8.10;;;14.40;66.90;;;;;;4987492;28;20100;-69
2020/12/31 01:25:31;;;;;;;13.77;7.03;;;14.40;66.90;;;;;;4988592;28;20104;-69
2020/12/31 01:27:57;;;;;;;12.20;6.95;;;14.40;67.10;;;;;;4998264;28;20083;-69
2020/12/31 01:30:22;;;;;;;15.48;7.35;;;14.40;66.90;;;;;;4991664;28;20023;-69
2020/12/31 01:32:48;;;;;;;13.88;6.93;;;14.40;67.00;;;;;;4989014;28;20041;-69
2020/12/31 01:35:13;;;;;;;13.75;7.18;;;14.40;67.00;;;;;;4979398;28;20022;-68
2020/12/31 01:37:39;;;;;;;12.48;7.45;;;14.40;67.20;;;;;;4983970;28;20035;-69
2020/12/31 01:40:04;;;;;;;12.95;7.13;;;14.40;67.00;;;;;;4976947;28;20103;-66
2020/12/31 01:42:30;;;;;;;12.55;7.03;;;14.30;66.70;;;;;;5011803;28;20095;-69
2020/12/31 01:44:55;;;;;;;12.52;6.80;;;14.30;66.80;;;;;;4982424;28;20027;-69
2020/12/31 01:47:21;;;;;;;11.73;6.50;;;14.30;66.70;;;;;;4972677;28;20027;-68
2020/12/31 01:49:49;;;;;;;12.63;6.55;;;14.30;66.80;;;;;;4986429;28;20062;-67
2020/12/31 01:52:15;;;;;;;11.80;6.60;;;14.30;66.90;;;;;;5002896;28;20029;-68
2020/12/31 01:54:44;;;;;;;11.85;6.40;;;14.30;66.90;;;;;;4991352;28;20034;-68
2020/12/31 01:57:10;;;;;;;11.68;6.72;;;14.30;66.90;;;;;;4988537;28;20057;-69
2020/12/31 01:59:35;;;;;;;11.32;6.50;;;14.20;66.70;;;;;;4979405;28;20027;-70
2020/12/31 02:02:01;;;;;;;10.27;6.10;;;14.20;66.80;;;;;;4973782;28;20403;-69
2020/12/31 02:04:27;;;;;;;11.10;6.10;;;14.20;66.30;;;;;;4980684;28;20035;-69
2020/12/31 02:06:53;;;;;;;10.55;6.25;;;14.20;66.40;;;;;;4974057;28;20086;-69
2020/12/31 02:09:19;;;;;;;10.13;5.97;;;14.10;66.30;;;;;;4984243;28;20038;-68
2020/12/31 02:11:45;;;;;;;10.65;5.80;;;14.10;66.30;;;;;;4992399;28;20105;-68
2020/12/31 02:14:10;;;;;;;11.57;6.00;;;14.10;66.60;;;;;;4983283;28;20023;-69
2020/12/31 02:16:38;;;;;;;10.48;5.40;;;14.10;66.60;;;;;;4971882;28;20476;-68
2020/12/31 02:19:15;;;;;;;10.88;5.40;;;14.10;66.90;;;;;;4976140;28;20023;-69
2020/12/31 02:21:48;;;;;;;12.40;5.72;;;14.20;66.90;;;;;;4973619;28;20027;-68
2020/12/31 02:24:14;;;;;;;9.35;5.07;;;14.20;66.80;;;;;;4975831;28;20035;-69
2020/12/31 02:26:42;;;;;;;9.88;5.25;;;14.10;67.00;;;;;;4976982;28;20022;-70
2020/12/31 02:29:09;;;;;;;10.57;5.30;;;14.10;66.90;;;;;;4971899;28;20404;-69
2020/12/31 02:31:35;;;;;;;9.95;5.35;;;14.10;67.00;;;;;;4982122;28;20030;-69
2020/12/31 02:34:02;;;;;;;10.02;5.47;;;14.10;67.00;;;;;;4978649;28;20023;-68
2020/12/31 02:36:30;;;;;;;8.70;4.72;;;14.10;66.90;;;;;;4981457;28;20018;-68
2020/12/31 02:39:00;;;;;;;11.63;6.03;;;14.10;67.00;;;;;;4981682;28;20061;-68
2020/12/31 02:41:26;;;;;;;9.82;5.40;;;14.10;66.80;;;;;;4991117;28;20037;-69
2020/12/31 02:43:52;;;;;;;8.98;5.20;;;14.10;67.10;;;;;;4991449;28;20034;-68
2020/12/31 02:46:21;;;;;;;9.63;5.60;;;14.10;67.00;;;;;;4992072;28;20034;-69
2020/12/31 02:48:50;;;;;;;8.32;5.00;;;14.00;66.80;;;;;;4985183;28;20031;-68
2020/12/31 02:51:17;;;;;;;7.90;4.80;;;14.00;66.80;;;;;;4984296;28;20026;-69
2020/12/31 02:53:42;;;;;;;9.43;5.55;;;14.00;66.70;;;;;;4976802;28;20027;-70
2020/12/31 02:56:14;;;;;;;8.63;4.93;;;14.00;66.80;;;;;;4985391;28;20038;-68
2020/12/31 02:58:40;;;;;;;8.75;4.82;;;14.00;66.70;;;;;;4981596;28;20114;-69
2020/12/31 03:01:06;;;;;;;8.05;4.70;;;14.00;66.70;;;;;;4977790;28;20045;-69
2020/12/31 03:03:32;;;;;;;11.02;5.30;;;14.00;66.60;;;;;;4972828;28;20030;-68
2020/12/31 03:05:57;;;;;;;9.32;4.95;;;14.00;66.60;;;;;;4971161;28;20114;-70
2020/12/31 03:08:23;;;;;;;8.45;4.88;;;13.90;66.30;;;;;;4972285;28;20407;-68
2020/12/31 03:10:48;;;;;;;9.25;4.80;;;13.90;66.10;;;;;;4980118;28;20526;-69
2020/12/31 03:13:14;;;;;;;9.13;4.75;;;13.90;66.20;;;;;;4987339;28;20030;-69
2020/12/31 03:15:39;;;;;;;8.50;4.15;;;13.90;66.20;;;;;;4974145;28;20035;-68
2020/12/31 03:18:05;;;;;;;9.13;4.68;;;13.90;66.00;;;;;;4973276;28;20041;-69
2020/12/31 03:20:30;;;;;;;7.10;4.10;;;13.90;66.20;;;;;;4976549;28;20027;-69
2020/12/31 03:22:56;;;;;;;7.30;4.03;;;13.90;66.00;;;;;;4972559;28;20455;-68
2020/12/31 03:25:21;;;;;;;8.35;4.20;;;13.80;65.90;;;;;;4987832;28;20646;-68
2020/12/31 03:27:47;;;;;;;7.50;4.13;;;13.80;65.90;;;;;;4982188;28;20058;-68
2020/12/31 03:30:12;;;;;;;7.70;4.10;;;13.80;65.90;;;;;;4977142;28;20490;-69
2020/12/31 03:32:38;;;;;;;7.38;3.85;;;13.80;66.00;;;;;;4988068;28;20085;-67
2020/12/31 03:35:04;;;;;;;8.23;4.05;;;13.90;66.20;;;;;;4977429;28;20388;-68
2020/12/31 03:37:29;;;;;;;7.95;4.15;;;13.80;65.80;;;;;;4971970;28;20038;-69
2020/12/31 03:39:55;;;;;;;8.55;4.40;;;13.80;65.80;;;;;;4981800;28;20407;-69
2020/12/31 03:42:20;;;;;;;7.55;3.65;;;13.80;66.00;;;;;;4989915;28;20097;-68
2020/12/31 03:44:46;;;;;;;7.18;4.30;;;13.80;66.10;;;;;;4983546;28;20057;-69
2020/12/31 03:47:12;;;;;;;9.10;4.10;;;13.80;65.90;;;;;;4986824;28;20026;-68
2020/12/31 03:49:38;;;;;;;6.90;3.65;;;13.80;66.00;;;;;;4972002;28;20038;-68
2020/12/31 03:52:04;;;;;;;7.78;4.20;;;13.70;65.70;;;;;;4971302;28;20510;-70
2020/12/31 03:54:29;;;;;;;7.53;4.20;;;13.70;65.60;;;;;;4979368;28;20037;-69
2020/12/31 03:56:55;;;;;;;7.90;4.10;;;13.70;65.80;;;;;;4977826;28;20041;-69
2020/12/31 03:59:20;;;;;;;7.07;3.90;;;13.70;65.90;;;;;;4980524;28;20557;-68
2020/12/31 04:01:46;;;;;;;6.85;3.53;;;13.70;66.20;;;;;;4979213;28;20038;-67
2020/12/31 04:04:11;;;;;;;7.05;3.72;;;13.70;66.10;;;;;;4981260;28;20114;-68
2020/12/31 04:06:37;;;;;;;7.80;4.28;;;13.70;66.00;;;;;;4989455;28;20034;-68
2020/12/31 04:09:02;;;;;;;6.50;3.45;;;13.70;66.40;;;;;;4985930;28;20480;-68
2020/12/31 04:11:28;;;;;;;6.72;3.90;;;13.70;66.60;;;;;;5000551;28;20022;-69
2020/12/31 04:13:53;;;;;;;6.60;3.80;;;13.70;65.70;;;;;;4979025;28;20424;-68
2020/12/31 04:16:19;;;;;;;6.47;3.70;;;13.70;66.00;;;;;;4988445;28;20058;-68
2020/12/31 04:18:44;;;;;;;7.25;3.92;;;13.70;66.00;;;;;;4989447;28;20030;-69
2020/12/31 04:21:10;;;;;;;6.90;3.92;;;13.70;65.90;;;;;;4972660;28;20026;-69
2020/12/31 04:23:37;;;;;;;6.38;3.33;;;13.70;65.80;;;;;;4978155;28;20026;-69
2020/12/31 04:26:03;;;;;;;6.63;3.72;;;13.70;66.00;;;;;;4988829;28;20031;-67
2020/12/31 04:28:28;;;;;;;5.65;3.28;;;13.70;66.00;;;;;;4985365;28;20037;-68
2020/12/31 04:30:54;;;;;;;7.05;3.45;;;13.60;65.60;;;;;;4989404;28;20695;-69
2020/12/31 04:33:19;;;;;;;6.75;3.47;;;13.60;65.70;;;;;;4983850;28;20035;-68
2020/12/31 04:35:45;;;;;;;8.00;3.40;;;13.60;66.00;;;;;;4971728;28;20400;-69
2020/12/31 04:38:10;;;;;;;6.88;3.90;;;13.60;65.90;;;;;;4986715;28;20434;-68
2020/12/31 04:40:44;;;;;;;7.57;3.50;;;13.60;65.90;;;;;;4988049;28;20031;-68
2020/12/31 04:43:11;;;;;;;6.80;3.63;;;13.60;66.10;;;;;;4994078;28;20098;-69
2020/12/31 04:45:39;;;;;;;6.50;3.42;;;13.60;65.90;;;;;;4977223;28;20031;-70
2020/12/31 04:48:26;;;;;;;6.85;3.50;;;13.60;66.00;;;;;;4981951;28;20031;-69
2020/12/31 04:50:57;;;;;;;5.57;3.20;;;13.60;65.90;;;;;;4990483;28;20553;-69
2020/12/31 04:53:24;;;;;;;5.72;3.42;;;13.60;66.00;;;;;;4975034;28;20065;-69
2020/12/31 04:55:51;;;;;;;5.75;3.30;;;13.60;66.00;;;;;;4973633;28;20038;-68
2020/12/31 04:58:16;;;;;;;5.60;2.90;;;13.60;66.10;;;;;;4976395;28;20057;-68
2020/12/31 05:00:43;;;;;;;6.80;3.45;;;13.60;66.10;;;;;;4986552;28;20617;-68
2020/12/31 05:04:02;;;;;;;5.60;3.05;;;13.60;66.10;;;;;;4975861;28;20034;-67
2020/12/31 05:06:32;;;;;;;6.18;3.15;;;13.60;66.00;;;;;;4977455;28;20189;-69
2020/12/31 05:09:16;;;;;;;7.22;3.22;;;13.60;66.20;;;;;;4980921;28;20046;-68
2020/12/31 05:11:46;;;;;;;6.82;3.58;;;13.60;66.00;;;;;;4992131;28;20101;-68
2020/12/31 05:14:12;;;;;;;5.97;3.10;;;13.60;66.00;;;;;;4987890;28;20491;-69
2020/12/31 05:16:38;;;;;;;6.47;3.50;;;13.60;65.90;;;;;;4979430;28;20081;-69
2020/12/31 05:19:23;;;;;;;6.43;3.35;;;13.60;66.00;;;;;;4980708;28;20053;-68
2020/12/31 05:22:08;;;;;;;7.53;3.50;;;13.50;65.70;;;;;;4998556;28;20030;-70
2020/12/31 05:24:33;;;;;;;6.90;2.97;;;13.50;65.60;;;;;;4976235;28;20030;-68
2020/12/31 05:27:14;;;;;;;7.20;3.75;;;13.50;65.90;;;;;;4972701;28;20035;-69
2020/12/31 05:29:40;;;;;;;6.53;3.53;;;13.60;65.80;;;;;;4974796;28;20037;-69
2020/12/31 05:32:05;;;;;;;6.68;3.40;;;13.50;65.70;;;;;;4972596;28;20023;-69
2020/12/31 05:34:31;;;;;;;6.18;3.40;;;13.50;65.50;;;;;;4989474;28;20030;-69
2020/12/31 05:37:16;;;;;;;6.90;3.55;;;13.50;65.70;;;;;;4978771;28;20655;-68
2020/12/31 05:40:01;;;;;;;6.15;3.17;;;13.50;65.50;;;;;;4987427;28;20092;-69
2020/12/31 05:42:29;;;;;;;5.88;3.05;;;13.50;65.70;;;;;;4974562;28;20035;-67
2020/12/31 05:44:57;;;;;;;6.28;3.33;;;13.50;65.60;;;;;;4989057;28;20491;-68
2020/12/31 05:47:23;;;;;;;6.70;3.78;;;13.50;65.60;;;;;;4983802;28;20031;-69
2020/12/31 05:49:49;;;;;;;8.70;3.78;;;13.40;65.30;;;;;;4987062;28;20041;-68
2020/12/31 05:52:32;;;;;;;8.73;4.10;;;13.40;65.50;;;;;;4974841;28;20026;-69
2020/12/31 05:54:59;;;;;;;7.45;3.78;;;13.40;65.40;;;;;;4992108;28;20543;-69
2020/12/31 05:57:40;;;;;;;7.90;3.70;;;13.40;65.40;;;;;;4990063;28;20030;-70
2020/12/31 06:00:07;;;;;;;8.35;3.92;;;13.30;65.40;;;;;;4978969;28;20042;-69
2020/12/31 06:02:40;;;;;;;7.63;3.33;;;13.30;65.80;;;;;;4981630;28;20121;-66
2020/12/31 06:05:13;;;;;;;7.43;3.30;;;13.30;65.70;;;;;;4988918;28;20034;-67
2020/12/31 06:07:43;;;;;;;8.38;3.50;;;13.30;65.60;;;;;;4977633;28;20144;-67
2020/12/31 06:10:12;;;;;;;7.40;3.53;;;13.30;65.50;;;;;;4979313;28;20034;-67
2020/12/31 06:12:54;;;;;;;7.80;3.78;;;13.30;65.60;;;;;;4976709;28;20023;-66
2020/12/31 06:15:32;;;;;;;9.63;3.30;;;13.30;65.30;;;;;;4973140;28;20043;-66
2020/12/31 06:18:00;;;;;;;6.65;3.22;;;13.30;65.70;;;;;;4980974;28;20479;-67
2020/12/31 06:20:27;;;;;;;7.00;3.55;;;13.30;65.70;;;;;;4992324;28;20035;-67
2020/12/31 06:23:00;;;;;;;7.97;4.03;;;13.30;65.60;;;;;;4992142;28;20026;-68
2020/12/31 06:25:47;;;;;;;7.22;3.33;;;13.30;65.50;;;;;;4977150;28;20475;-68
2020/12/31 06:28:22;;;;;;;7.07;3.28;;;13.20;65.30;;;;;;4981916;28;20068;-68
2020/12/31 06:30:55;;;;;;;7.63;3.17;;;13.20;65.50;;;;;;4980733;28;20038;-68
2020/12/31 06:33:40;;;;;;;6.50;3.42;;;13.20;65.60;;;;;;4984316;28;20024;-68
2020/12/31 06:36:05;;;;;;;6.97;3.30;;;13.30;65.60;;;;;;4977109;28;20029;-68
2020/12/31 06:38:36;;;;;;;10.05;3.97;;;13.20;65.60;;;;;;4980932;28;20399;-68
2020/12/31 06:41:04;;;;;;;6.05;3.22;;;13.30;65.60;;;;;;4994648;28;20027;-69
2020/12/31 06:44:06;;;;;;;6.13;3.15;;;13.20;65.80;;;;;;4978681;28;20523;-67
2020/12/31 06:46:42;;;;;;;6.55;2.90;;;13.20;65.20;;;;;;4988464;28;20061;-68
2020/12/31 06:49:08;;;;;;;9.20;5.75;;;13.20;65.90;;;;;;4983299;28;20129;-67
2020/12/31 06:51:34;;;;;;;7.85;4.35;;;13.20;65.50;;;;;;4981278;28;20030;-67
2020/12/31 06:54:00;;;;;;;7.15;3.20;;;13.20;65.60;;;;;;4982168;28;20045;-68
2020/12/31 06:56:45;;;;;;;7.88;4.00;;;13.20;65.80;;;;;;4976480;28;20113;-68
2020/12/31 06:59:38;;;;;;;6.75;2.95;;;13.20;65.10;;;;;;4978682;28;20125;-66
2020/12/31 07:02:10;;;;;;;6.38;2.85;;;13.20;65.80;;;;;;4977887;28;20209;-68
2020/12/31 07:04:39;;;;;;;7.30;2.92;;;13.20;65.70;;;;;;4976959;28;20034;-67
2020/12/31 07:07:19;;;;;;;7.00;3.17;;;13.30;66.10;;;;;;4982879;28;20042;-67
2020/12/31 07:09:57;;;;;;;6.35;3.05;;;13.30;65.80;;;;;;4980543;28;20129;-68
2020/12/31 07:15:45;;;;;;;8.98;3.22;;;13.50;65.00;;;;;;4967042;28;20803;-68
2020/12/31 07:18:13;;;;;;;6.72;2.78;;;13.60;64.90;;;;;;4978637;28;20038;-67
2020/12/31 07:20:46;;;;;;;9.05;3.05;;;13.70;64.90;;;;;;4978684;28;20447;-68
2020/12/31 07:23:12;;;;;;;7.05;2.67;;;13.80;65.10;;;;;;4978559;28;20037;-68
2020/12/31 07:25:44;;;;;;;6.55;2.58;;;13.90;65.60;;;;;;4975493;28;20615;-69
2020/12/31 07:28:16;;;;;;;7.22;2.47;;;14.00;65.40;;;;;;4972125;28;20495;-68
2020/12/31 07:30:52;;;;;;;6.35;2.60;;;14.00;65.30;;;;;;4979514;28;20030;-68
2020/12/31 07:33:37;;;;;;;6.40;2.67;;;14.00;65.30;;;;;;4971256;28;20533;-68
2020/12/31 07:36:13;;;;;;;7.30;2.70;;;14.00;64.60;;;;;;4977805;28;20046;-68
2020/12/31 07:38:40;;;;;;;5.05;3.00;;;14.10;65.30;;;;;;4976208;28;20031;-66
2020/12/31 07:41:11;;;;;;;6.93;3.00;;;14.10;65.30;;;;;;4965603;28;20085;-66
2020/12/31 07:43:38;;;;;;;8.68;2.90;;;14.20;64.70;;;;;;4971429;28;20098;-67
2020/12/31 07:46:04;;;;;;;7.75;3.25;;;14.30;64.70;;;;;;4981213;28;20031;-67
2020/12/31 07:48:31;;;;;;;10.90;2.50;;;14.30;64.40;;;;;;4966134;28;20045;-67
2020/12/31 07:51:02;;;;;;;7.82;2.78;;;14.50;64.90;;;;;;4977579;28;20452;-67
2020/12/31 07:53:31;;;;;;;5.65;2.33;;;14.50;64.60;;;;;;4983178;28;20064;-65
2020/12/31 07:55:58;;;;;;;6.45;2.40;;;14.60;65.10;;;;;;4972210;28;20034;-67
2020/12/31 07:58:25;;;;;;;5.25;2.63;;;14.70;65.00;;;;;;4971145;28;20022;-67
2020/12/31 08:01:05;;;;;;;4.95;2.40;;;14.70;64.60;;;;;;4974727;28;20546;-66
2020/12/31 08:03:31;;;;;;;4.40;2.25;;;14.80;65.40;;;;;;4971054;28;20073;-67
2020/12/31 08:06:11;;;;;;;5.45;2.45;;;14.80;64.40;;;;;;4974953;28;20098;-65
2020/12/31 08:08:36;;;;;;;12.93;2.70;;;14.80;64.40;;;;;;4971074;28;20038;-67
2020/12/31 08:11:09;;;;;;;7.30;3.00;;;14.80;63.90;;;;;;4978297;28;20596;-67
2020/12/31 08:13:35;;;;;;;5.45;2.33;;;14.90;64.40;;;;;;4990892;28;20034;-66
2020/12/31 08:16:01;;;;;;;6.60;2.50;;;14.80;64.50;;;;;;4985991;28;20030;-68
2020/12/31 08:18:26;;;;;;;6.53;2.17;;;14.90;64.50;;;;;;4983025;28;20508;-67
2020/12/31 08:20:56;;;;;;;8.10;2.60;;;14.90;64.30;;;;;;4978272;28;20030;-69
2020/12/31 08:23:27;;;;;;;6.60;2.63;;;14.80;64.60;;;;;;4987327;28;20090;-71
2020/12/31 08:25:56;;;;;;;7.30;2.50;;;14.80;64.80;;;;;;4983873;28;21005;-67
2020/12/31 08:28:22;;;;;;;6.95;2.17;;;14.90;65.30;;;;;;4993880;28;20399;-65
2020/12/31 08:30:48;;;;;;;9.93;2.40;;;15.00;64.80;;;;;;4978930;28;20027;-67
2020/12/31 08:33:22;;;;;;;8.68;2.20;;;15.00;65.00;;;;;;4978384;28;20031;-66
2020/12/31 08:35:50;;;;;;;8.18;2.33;;;15.00;64.60;;;;;;4990346;28;20081;-66
2020/12/31 08:38:23;;;;;;;9.68;2.42;;;15.10;64.70;;;;;;4985764;28;20355;-67
2020/12/31 08:40:56;;;;;;;9.85;4.10;;;15.10;64.50;;;;;;4982908;28;20053;-68
2020/12/31 08:43:33;;;;;;;9.10;3.10;;;15.20;64.80;;;;;;4971675;28;20031;-67
2020/12/31 08:46:00;;;;;;;11.00;2.78;;;15.10;64.90;;;;;;4976870;28;20567;-68
2020/12/31 08:48:27;;;;;;;8.43;2.63;;;15.20;65.60;;;;;;4985728;28;20508;-66
2020/12/31 08:51:12;;;;;;;14.02;2.90;;;15.20;65.70;;;;;;4987363;28;20109;-66
2020/12/31 08:53:58;;;;;;;9.90;3.28;;;15.20;65.10;;;;;;4970842;28;20044;-65
2020/12/31 08:56:33;;;;;;;7.72;2.55;;;15.20;65.60;;;;;;4968240;28;20031;-67
2020/12/31 08:59:30;;;;;;;9.70;3.92;;;15.20;65.60;;;;;;4978150;28;20042;-66
2020/12/31 09:02:01;;;;;;;11.93;4.65;;;15.20;65.50;;;;;;4980814;28;20047;-65
2020/12/31 09:04:26;;;;;;;12.05;3.38;;;15.30;65.90;;;;;;4982035;28;20035;-66
2020/12/31 09:06:52;;;;;;;11.25;3.40;;;15.30;66.20;;;;;;4978202;28;20049;-66
2020/12/31 09:09:26;;;;;;;17.13;3.20;;;15.30;66.70;;;;;;4984647;28;20104;-64
2020/12/31 09:12:08;;;;;;;11.05;3.35;;;15.30;67.90;;;;;;4976297;28;20030;-66
2020/12/31 09:14:54;;;;;;;17.88;3.65;;;15.30;68.80;;;;;;4980588;28;20026;-67
2020/12/31 09:17:23;;;;;;;13.38;3.97;;;15.40;70.00;;;;;;4981956;28;20069;-65
2020/12/31 09:19:53;;;;;;;9.95;3.65;;;15.30;69.70;;;;;;4972826;28;20171;-65
2020/12/31 09:22:19;;;;;;;10.05;3.30;;;15.30;69.80;;;;;;4969530;28;20027;-65
2020/12/31 09:24:45;;;;;;;11.70;3.58;;;15.30;70.00;;;;;;4969324;28;20027;-65
2020/12/31 09:27:11;;;;;;;12.20;3.72;;;15.20;70.10;;;;;;4969020;28;20046;-64
2020/12/31 09:29:36;;;;;;;12.43;5.10;;;15.20;70.30;;;;;;4966922;28;20030;-65
2020/12/31 09:32:02;;;;;;;14.25;8.00;;;15.30;70.90;;;;;;4980475;28;20042;-68
2020/12/31 09:34:28;;;;;;;17.35;9.18;;;15.30;71.30;;;;;;4975655;28;20039;-65
2020/12/31 09:37:00;;;;;;;15.93;8.55;;;15.30;70.80;;;;;;4967395;28;20106;-64
2020/12/31 09:39:26;;;;;;;15.75;9.63;;;15.30;71.30;;;;;;4972808;28;20487;-63
2020/12/31 09:41:52;;;;;;;17.40;8.63;;;15.40;70.80;;;;;;4972137;28;20034;-65
2020/12/31 09:44:18;;;;;;;10.73;7.03;;;15.30;71.10;;;;;;4975597;28;20113;-66
2020/12/31 09:46:44;;;;;;;11.82;8.15;;;15.40;70.60;;;;;;4976444;28;20548;-67
2020/12/31 09:49:09;;;;;;;17.13;9.55;;;15.30;70.20;;;;;;4981160;28;20026;-66
2020/12/31 09:51:35;;;;;;;13.00;9.38;;;15.30;70.40;;;;;;4974099;28;20482;-67
2020/12/31 09:54:01;;;;;;;13.82;8.98;;;15.30;70.30;;;;;;4974331;28;20438;-65
2020/12/31 09:56:30;;;;;;;15.10;7.82;;;15.30;70.20;;;;;;4992035;28;20019;-67
2020/12/31 09:58:57;;;;;;;14.18;6.70;;;15.20;70.50;;;;;;4991404;28;20045;-66
2020/12/31 10:01:23;;;;;;;10.98;5.78;;;15.20;70.90;;;;;;4982790;28;20507;-68
2020/12/31 10:03:49;;;;;;;10.48;6.05;;;15.20;70.00;;;;;;4992975;28;20129;-66
2020/12/31 10:06:14;;;;;;;15.95;5.68;;;15.20;70.40;;;;;;4986190;28;20101;-67
2020/12/31 10:08:44;;;;;;;11.55;5.47;;;15.20;70.50;;;;;;4981756;28;20035;-67
2020/12/31 10:11:10;;;;;;;15.68;6.07;;;15.30;70.80;;;;;;4978403;28;20084;-67
2020/12/31 10:13:36;;;;;;;21.05;7.18;;;15.30;70.30;;;;;;4985806;28;20069;-68
2020/12/31 10:16:03;;;;;;;11.65;6.72;;;15.30;70.80;;;;;;4993099;28;20034;-64
2020/12/31 10:18:29;;;;;;;10.02;5.90;;;15.30;70.70;;;;;;4991076;28;20427;-66
2020/12/31 10:20:55;;;;;;;10.05;5.75;;;15.30;70.50;;;;;;4991562;28;20090;-65
2020/12/31 10:23:20;;;;;;;8.30;4.93;;;15.30;70.00;;;;;;4991167;28;20049;-65
2020/12/31 10:25:52;;;;;;;9.60;5.28;;;15.40;69.70;;;;;;4992054;28;20034;-64
2020/12/31 10:28:19;;;;;;;8.82;4.20;;;15.40;69.20;;;;;;4985758;28;20552;-65
2020/12/31 10:30:45;;;;;;;10.30;4.13;;;15.50;69.30;;;;;;4990198;28;20041;-65
2020/12/31 10:33:10;;;;;;;7.78;3.85;;;15.50;68.40;;;;;;4987293;28;20030;-65
2020/12/31 10:35:36;;;;;;;14.80;3.85;;;15.40;67.70;;;;;;4991884;28;20699;-67
2020/12/31 10:38:01;;;;;;;9.63;3.47;;;15.40;68.20;;;;;;4987434;28;20061;-66
2020/12/31 10:40:27;;;;;;;9.05;3.30;;;15.50;67.50;;;;;;4988986;28;20105;-67
2020/12/31 10:42:52;;;;;;;8.90;3.60;;;15.70;67.20;;;;;;4990372;28;20129;-67
2020/12/31 10:45:18;;;;;;;9.50;3.67;;;15.60;66.60;;;;;;4979755;28;20160;-70
2020/12/31 10:47:43;;;;;;;10.65;3.47;;;15.70;67.10;;;;;;4992767;28;20034;-67
2020/12/31 10:50:09;;;;;;;11.18;3.33;;;15.60;67.00;;;;;;4988758;28;20300;-70
2020/12/31 10:52:35;;;;;;;7.32;3.03;;;15.60;66.20;;;;;;4996403;28;20048;-64
2020/12/31 10:55:00;;;;;;;10.40;3.05;;;15.70;66.70;;;;;;4991322;28;20014;-67
2020/12/31 10:57:26;;;;;;;12.80;3.10;;;15.60;66.50;;;;;;4992961;28;20076;-68
2020/12/31 10:59:52;;;;;;;9.40;3.20;;;15.60;66.40;;;;;;4993422;28;20110;-70
2020/12/31 11:02:17;;;;;;;18.27;3.30;;;15.60;66.30;;;;;;4994498;28;20022;-68
2020/12/31 11:04:43;;;;;;;9.93;2.70;;;15.50;66.20;;;;;;5001924;28;20088;-68
2020/12/31 11:07:10;;;;;;;7.45;2.60;;;15.50;66.00;;;;;;4998105;28;20033;-68
2020/12/31 11:09:36;;;;;;;13.52;2.72;;;15.50;65.00;;;;;;4995250;28;20056;-68
2020/12/31 11:12:02;;;;;;;10.35;2.88;;;15.40;64.50;;;;;;5000563;28;20034;-65
2020/12/31 11:14:27;;;;;;;10.32;2.50;;;15.40;64.30;;;;;;4993747;28;20023;-67
2020/12/31 11:16:53;;;;;;;8.20;2.50;;;15.50;64.50;;;;;;4980765;28;20034;-66
2020/12/31 11:19:20;;;;;;;9.65;2.55;;;15.50;64.70;;;;;;4984180;28;20018;-67
2020/12/31 11:21:48;;;;;;;8.20;2.20;;;15.50;64.90;;;;;;4985034;28;20034;-69
2020/12/31 11:24:14;;;;;;;6.70;2.45;;;15.50;65.20;;;;;;5005580;28;20034;-70
2020/12/31 11:26:39;;;;;;;8.18;2.28;;;15.50;65.10;;;;;;4993748;28;20041;-69
2020/12/31 11:29:05;;;;;;;7.32;2.40;;;15.50;65.20;;;;;;4997804;28;20117;-68
2020/12/31 11:31:31;;;;;;;6.60;2.42;;;15.40;65.20;;;;;;4989270;28;20026;-68
2020/12/31 11:33:56;;;;;;;6.22;2.33;;;15.50;65.40;;;;;;5001550;28;20106;-66
2020/12/31 11:36:23;;;;;;;7.25;1.98;;;15.50;65.30;;;;;;4999128;28;20022;-66
2020/12/31 11:38:49;;;;;;;10.05;2.40;;;15.50;65.10;;;;;;4991080;28;20030;-67
2020/12/31 11:41:15;;;;;;;7.18;2.65;;;15.60;65.30;;;;;;4994528;28;20507;-66
2020/12/31 11:43:41;;;;;;;7.10;2.25;;;15.40;65.20;;;;;;4987137;28;20114;-66
2020/12/31 11:46:07;;;;;;;14.70;2.63;;;15.40;65.30;;;;;;4991936;28;20029;-67
2020/12/31 11:48:34;;;;;;;9.32;2.33;;;15.40;65.30;;;;;;4993133;28;20060;-66
2020/12/31 11:51:01;;;;;;;10.60;2.50;;;15.40;65.00;;;;;;4992923;28;20030;-66
2020/12/31 11:53:27;;;;;;;29.52;23.48;;;15.50;65.60;;;;;;4994151;28;20022;-66
2020/12/31 11:55:53;;;;;;;26.23;15.05;;;15.50;66.20;;;;;;4993128;28;20029;-65
2020/12/31 11:58:19;;;;;;;19.77;10.68;;;15.50;66.10;;;;;;4988713;28;20018;-66
2020/12/31 12:00:45;;;;;;;15.73;6.13;;;15.50;66.60;;;;;;4986242;28;20322;-65
2020/12/31 12:03:11;;;;;;;20.00;5.40;;;15.50;66.00;;;;;;4989160;28;20027;-65
2020/12/31 12:05:37;;;;;;;11.80;4.75;;;15.60;66.10;;;;;;4988941;28;20077;-66
2020/12/31 12:08:04;;;;;;;14.90;6.03;;;15.50;66.10;;;;;;4989794;28;20026;-64
2020/12/31 12:10:30;;;;;;;14.25;5.40;;;15.50;65.80;;;;;;4980141;28;20038;-67
2020/12/31 12:12:56;;;;;;;15.80;5.68;;;15.60;65.90;;;;;;4982835;28;20023;-65
2020/12/31 12:15:21;;;;;;;16.50;5.20;;;15.70;66.20;;;;;;4990660;28;20033;-64
2020/12/31 12:17:49;;;;;;;12.73;5.03;;;15.80;65.60;;;;;;4981272;28;20027;-64
2020/12/31 12:20:15;;;;;;;13.68;4.45;;;15.80;65.30;;;;;;5009122;28;20049;-64
2020/12/31 12:22:42;;;;;;;11.20;4.10;;;15.80;65.00;;;;;;4992229;28;20507;-64
2020/12/31 12:25:08;;;;;;;14.15;4.25;;;15.90;64.80;;;;;;4991825;28;20033;-65
2020/12/31 12:27:35;;;;;;;10.52;4.30;;;15.90;64.60;;;;;;4988808;28;20117;-66
2020/12/31 12:30:05;;;;;;;13.80;3.58;;;15.90;64.10;;;;;;4991946;28;20503;-65
2020/12/31 12:32:30;;;;;;;10.88;3.42;;;15.90;63.90;;;;;;4993289;28;20030;-66
2020/12/31 12:34:56;;;;;;;12.45;3.47;;;15.90;63.70;;;;;;4992239;28;20029;-65
2020/12/31 12:37:22;;;;;;;13.88;3.92;;;15.90;63.50;;;;;;4993186;28;20029;-65
2020/12/31 12:39:48;;;;;;;9.75;3.63;;;15.90;63.10;;;;;;4991059;28;20570;-64
2020/12/31 12:42:14;;;;;;;11.02;3.67;;;15.90;63.50;;;;;;4993775;28;20041;-64
2020/12/31 12:44:39;;;;;;;14.95;5.57;;;15.90;63.20;;;;;;4990441;28;20030;-63
2020/12/31 12:47:05;;;;;;;17.90;5.65;;;15.90;63.40;;;;;;4992320;28;20114;-66
2020/12/31 12:49:31;;;;;;;27.40;6.00;;;15.80;63.50;;;;;;4991313;28;20037;-66
2020/12/31 12:51:56;;;;;;;28.25;6.18;;;15.90;64.10;;;;;;4996547;28;20027;-67